sensor_id;sensor_type;location;lat;lon;timestamp;P1;durP1;ratioP1;P2;durP2;ratioP2
27746;SDS011;15138;51.012;4.692;2024-03-23T00:54:06;15.98;;;2.83;;
27746;SDS011;15138;51.012;4.692;2024-03-23T00:56:33;11.07;;;2.60;;
27746;SDS011;15138;51.012;4.692;2024-03-23T00:59:00;11.75;;;2.22;;
27746;SDS011;15138;51.012;4.692;2024-03-23T01:01:27;10.32;;;2.55;;
27746;SDS011;15138;51.012;4.692;2024-03-23T01:03:54;9.43;;;2.60;;
27746;SDS011;15138;51.012;4.692;2024-03-23T01:06:21;15.40;;;2.95;;
27746;SDS011;15138;51.012;4.692;2024-03-23T01:08:48;14.13;;;3.13;;
27746;SDS011;15138;51.012;4.692;2024-03-23T01:11:16;14.77;;;3.15;;
27746;SDS011;15138;51.012;4.692;2024-03-23T01:13:43;15.13;;;3.10;;
27746;SDS011;15138;51.012;4.692;2024-03-23T01:16:10;11.20;;;2.78;;
27746;SDS011;15138;51.012;4.692;2024-03-23T01:18:37;16.65;;;3.20;;
27746;SDS011;15138;51.012;4.692;2024-03-23T01:21:04;11.57;;;2.30;;
27746;SDS011;15138;51.012;4.692;2024-03-23T01:23:31;13.35;;;2.80;;
27746;SDS011;15138;51.012;4.692;2024-03-23T01:25:58;19.25;;;2.95;;
27746;SDS011;15138;51.012;4.692;2024-03-23T01:28:26;16.25;;;3.45;;
27746;SDS011;15138;51.012;4.692;2024-03-23T01:30:53;14.43;;;2.53;;
27746;SDS011;15138;51.012;4.692;2024-03-23T01:33:21;13.45;;;3.13;;
27746;SDS011;15138;51.012;4.692;2024-03-23T01:35:47;13.55;;;2.97;;
27746;SDS011;15138;51.012;4.692;2024-03-23T01:38:15;16.15;;;3.08;;
27746;SDS011;15138;51.012;4.692;2024-03-23T01:40:41;18.42;;;3.45;;
27746;SDS011;15138;51.012;4.692;2024-03-23T01:43:09;12.00;;;2.63;;
27746;SDS011;15138;51.012;4.692;2024-03-23T01:45:37;13.25;;;2.75;;
27746;SDS011;15138;51.012;4.692;2024-03-23T01:48:04;13.90;;;2.97;;
27746;SDS011;15138;51.012;4.692;2024-03-23T01:50:31;11.98;;;2.67;;
27746;SDS011;15138;51.012;4.692;2024-03-23T01:52:59;10.98;;;2.42;;
27746;SDS011;15138;51.012;4.692;2024-03-23T01:55:26;10.43;;;3.20;;
27746;SDS011;15138;51.012;4.692;2024-03-23T01:57:53;11.90;;;3.00;;
27746;SDS011;15138;51.012;4.692;2024-03-23T02:00:22;13.95;;;3.00;;
27746;SDS011;15138;51.012;4.692;2024-03-23T02:02:52;11.68;;;2.85;;
27746;SDS011;15138;51.012;4.692;2024-03-23T02:05:18;16.33;;;4.00;;
27746;SDS011;15138;51.012;4.692;2024-03-23T02:07:45;16.40;;;3.75;;
27746;SDS011;15138;51.012;4.692;2024-03-23T02:10:12;13.02;;;3.25;;
27746;SDS011;15138;51.012;4.692;2024-03-23T02:12:40;18.83;;;3.90;;
27746;SDS011;15138;51.012;4.692;2024-03-23T02:15:07;10.52;;;3.38;;
27746;SDS011;15138;51.012;4.692;2024-03-23T02:17:35;13.95;;;3.55;;
27746;SDS011;15138;51.012;4.692;2024-03-23T02:20:03;20.05;;;3.53;;
27746;SDS011;15138;51.012;4.692;2024-03-23T02:22:35;19.40;;;3.50;;
27746;SDS011;15138;51.012;4.692;2024-03-23T02:25:04;9.23;;;3.33;;
27746;SDS011;15138;51.012;4.692;2024-03-23T02:27:31;10.80;;;2.75;;
27746;SDS011;15138;51.012;4.692;2024-03-23T02:29:58;13.15;;;3.42;;
27746;SDS011;15138;51.012;4.692;2024-03-23T02:32:26;12.07;;;3.45;;
27746;SDS011;15138;51.012;4.692;2024-03-23T02:34:52;9.13;;;2.60;;
27746;SDS011;15138;51.012;4.692;2024-03-23T02:37:19;18.10;;;4.60;;
27746;SDS011;15138;51.012;4.692;2024-03-23T02:39:46;13.70;;;3.55;;
27746;SDS011;15138;51.012;4.692;2024-03-23T02:42:15;9.40;;;2.83;;
27746;SDS011;15138;51.012;4.692;2024-03-23T02:44:43;15.50;;;4.25;;
27746;SDS011;15138;51.012;4.692;2024-03-23T02:47:10;15.98;;;3.88;;
27746;SDS011;15138;51.012;4.692;2024-03-23T02:49:36;14.63;;;4.50;;
27746;SDS011;15138;51.012;4.692;2024-03-23T02:52:04;12.30;;;3.90;;
27746;SDS011;15138;51.012;4.692;2024-03-23T02:54:30;15.50;;;3.78;;
27746;SDS011;15138;51.012;4.692;2024-03-23T02:56:58;16.25;;;3.95;;
27746;SDS011;15138;51.012;4.692;2024-03-23T02:59:26;14.73;;;4.65;;
27746;SDS011;15138;51.012;4.692;2024-03-23T03:01:53;14.77;;;5.03;;
27746;SDS011;15138;51.012;4.692;2024-03-23T03:04:20;16.58;;;5.32;;
27746;SDS011;15138;51.012;4.692;2024-03-23T03:06:47;16.70;;;5.35;;
27746;SDS011;15138;51.012;4.692;2024-03-23T03:09:14;16.75;;;4.68;;
27746;SDS011;15138;51.012;4.692;2024-03-23T03:11:41;10.40;;;3.80;;
27746;SDS011;15138;51.012;4.692;2024-03-23T03:14:08;9.25;;;2.95;;
27746;SDS011;15138;51.012;4.692;2024-03-23T03:16:37;12.32;;;4.20;;
27746;SDS011;15138;51.012;4.692;2024-03-23T03:19:03;11.10;;;4.20;;
27746;SDS011;15138;51.012;4.692;2024-03-23T03:21:31;17.88;;;4.32;;
27746;SDS011;15138;51.012;4.692;2024-03-23T03:23:57;9.88;;;2.95;;
27746;SDS011;15138;51.012;4.692;2024-03-23T03:26:25;8.32;;;3.50;;
27746;SDS011;15138;51.012;4.692;2024-03-23T03:28:52;10.05;;;4.72;;
27746;SDS011;15138;51.012;4.692;2024-03-23T03:31:20;14.75;;;5.45;;
27746;SDS011;15138;51.012;4.692;2024-03-23T03:33:49;12.63;;;3.67;;
27746;SDS011;15138;51.012;4.692;2024-03-23T03:36:16;23.80;;;5.53;;
27746;SDS011;15138;51.012;4.692;2024-03-23T03:38:43;11.77;;;4.03;;
27746;SDS011;15138;51.012;4.692;2024-03-23T03:41:10;15.95;;;4.40;;
27746;SDS011;15138;51.012;4.692;2024-03-23T03:43:37;15.30;;;3.35;;
27746;SDS011;15138;51.012;4.692;2024-03-23T03:46:04;9.48;;;4.07;;
27746;SDS011;15138;51.012;4.692;2024-03-23T03:48:33;9.50;;;3.78;;
27746;SDS011;15138;51.012;4.692;2024-03-23T03:51:02;14.65;;;5.10;;
27746;SDS011;15138;51.012;4.692;2024-03-23T03:53:28;12.43;;;4.40;;
27746;SDS011;15138;51.012;4.692;2024-03-23T03:55:56;15.65;;;5.13;;
27746;SDS011;15138;51.012;4.692;2024-03-23T03:58:23;14.07;;;3.58;;
27746;SDS011;15138;51.012;4.692;2024-03-23T04:00:50;7.35;;;3.55;;
27746;SDS011;15138;51.012;4.692;2024-03-23T04:03:17;12.82;;;3.80;;
27746;SDS011;15138;51.012;4.692;2024-03-23T04:05:49;18.42;;;5.05;;
27746;SDS011;15138;51.012;4.692;2024-03-23T04:08:17;11.60;;;3.85;;
27746;SDS011;15138;51.012;4.692;2024-03-23T04:10:44;16.20;;;5.22;;
27746;SDS011;15138;51.012;4.692;2024-03-23T04:13:11;14.85;;;4.90;;
27746;SDS011;15138;51.012;4.692;2024-03-23T04:15:38;13.50;;;4.47;;
27746;SDS011;15138;51.012;4.692;2024-03-23T04:18:05;8.57;;;3.42;;
27746;SDS011;15138;51.012;4.692;2024-03-23T04:20:33;13.93;;;4.07;;
27746;SDS011;15138;51.012;4.692;2024-03-23T04:23:00;16.15;;;5.22;;
27746;SDS011;15138;51.012;4.692;2024-03-23T04:25:28;15.68;;;4.82;;
27746;SDS011;15138;51.012;4.692;2024-03-23T04:27:55;16.20;;;5.28;;
27746;SDS011;15138;51.012;4.692;2024-03-23T04:30:22;21.00;;;5.35;;
27746;SDS011;15138;51.012;4.692;2024-03-23T04:32:50;12.93;;;4.25;;
27746;SDS011;15138;51.012;4.692;2024-03-23T04:35:17;19.30;;;5.22;;
27746;SDS011;15138;51.012;4.692;2024-03-23T04:37:45;13.20;;;4.70;;
27746;SDS011;15138;51.012;4.692;2024-03-23T04:40:12;26.27;;;6.22;;
27746;SDS011;15138;51.012;4.692;2024-03-23T04:42:41;11.07;;;3.42;;
27746;SDS011;15138;51.012;4.692;2024-03-23T04:45:09;19.88;;;5.03;;
27746;SDS011;15138;51.012;4.692;2024-03-23T04:47:37;16.42;;;5.43;;
27746;SDS011;15138;51.012;4.692;2024-03-23T04:50:04;17.70;;;4.30;;
27746;SDS011;15138;51.012;4.692;2024-03-23T04:52:31;18.98;;;5.53;;
27746;SDS011;15138;51.012;4.692;2024-03-23T04:54:58;15.65;;;5.32;;
27746;SDS011;15138;51.012;4.692;2024-03-23T04:57:26;19.08;;;6.03;;
27746;SDS011;15138;51.012;4.692;2024-03-23T04:59:54;16.00;;;5.43;;
27746;SDS011;15138;51.012;4.692;2024-03-23T05:02:21;19.38;;;5.60;;
27746;SDS011;15138;51.012;4.692;2024-03-23T05:04:48;19.95;;;5.80;;
27746;SDS011;15138;51.012;4.692;2024-03-23T05:07:15;15.70;;;4.88;;
27746;SDS011;15138;51.012;4.692;2024-03-23T05:09:42;17.23;;;5.57;;
27746;SDS011;15138;51.012;4.692;2024-03-23T05:12:09;17.30;;;5.13;;
27746;SDS011;15138;51.012;4.692;2024-03-23T05:14:36;16.33;;;5.03;;
27746;SDS011;15138;51.012;4.692;2024-03-23T05:17:04;19.70;;;5.60;;
27746;SDS011;15138;51.012;4.692;2024-03-23T05:19:31;17.25;;;4.97;;
27746;SDS011;15138;51.012;4.692;2024-03-23T05:21:59;17.45;;;5.60;;
27746;SDS011;15138;51.012;4.692;2024-03-23T05:24:25;19.67;;;5.50;;
27746;SDS011;15138;51.012;4.692;2024-03-23T05:26:54;17.20;;;5.00;;
27746;SDS011;15138;51.012;4.692;2024-03-23T05:29:21;19.90;;;4.95;;
27746;SDS011;15138;51.012;4.692;2024-03-23T05:31:49;13.00;;;5.22;;
27746;SDS011;15138;51.012;4.692;2024-03-23T05:34:18;19.50;;;4.47;;
27746;SDS011;15138;51.012;4.692;2024-03-23T05:36:45;16.38;;;4.50;;
27746;SDS011;15138;51.012;4.692;2024-03-23T05:39:12;22.70;;;5.68;;
27746;SDS011;15138;51.012;4.692;2024-03-23T05:41:41;14.75;;;4.30;;
27746;SDS011;15138;51.012;4.692;2024-03-23T05:44:08;16.05;;;4.18;;
27746;SDS011;15138;51.012;4.692;2024-03-23T05:46:36;13.05;;;3.90;;
27746;SDS011;15138;51.012;4.692;2024-03-23T05:49:02;14.90;;;4.45;;
27746;SDS011;15138;51.012;4.692;2024-03-23T05:51:31;15.35;;;4.30;;
27746;SDS011;15138;51.012;4.692;2024-03-23T05:53:57;16.35;;;4.10;;
27746;SDS011;15138;51.012;4.692;2024-03-23T05:56:26;18.05;;;4.15;;
27746;SDS011;15138;51.012;4.692;2024-03-23T05:58:52;18.75;;;4.65;;
27746;SDS011;15138;51.012;4.692;2024-03-23T06:01:20;18.52;;;4.10;;
27746;SDS011;15138;51.012;4.692;2024-03-23T06:03:46;11.73;;;4.47;;
27746;SDS011;15138;51.012;4.692;2024-03-23T06:06:14;16.38;;;4.13;;
27746;SDS011;15138;51.012;4.692;2024-03-23T06:08:42;14.45;;;4.15;;
27746;SDS011;15138;51.012;4.692;2024-03-23T06:11:09;17.00;;;3.30;;
27746;SDS011;15138;51.012;4.692;2024-03-23T06:13:36;18.23;;;4.30;;
27746;SDS011;15138;51.012;4.692;2024-03-23T06:16:03;16.70;;;3.95;;
27746;SDS011;15138;51.012;4.692;2024-03-23T06:18:31;17.08;;;3.60;;
27746;SDS011;15138;51.012;4.692;2024-03-23T06:20:58;15.57;;;4.03;;
27746;SDS011;15138;51.012;4.692;2024-03-23T06:23:24;17.45;;;3.63;;
27746;SDS011;15138;51.012;4.692;2024-03-23T06:25:53;17.83;;;3.78;;
27746;SDS011;15138;51.012;4.692;2024-03-23T06:28:20;12.98;;;3.45;;
27746;SDS011;15138;51.012;4.692;2024-03-23T06:30:47;16.55;;;4.32;;
27746;SDS011;15138;51.012;4.692;2024-03-23T06:33:14;21.10;;;4.63;;
27746;SDS011;15138;51.012;4.692;2024-03-23T06:35:41;16.90;;;3.60;;
27746;SDS011;15138;51.012;4.692;2024-03-23T06:38:07;16.83;;;3.85;;
27746;SDS011;15138;51.012;4.692;2024-03-23T06:40:35;12.80;;;3.00;;
27746;SDS011;15138;51.012;4.692;2024-03-23T06:43:03;12.10;;;3.72;;
27746;SDS011;15138;51.012;4.692;2024-03-23T06:45:31;16.75;;;4.00;;
27746;SDS011;15138;51.012;4.692;2024-03-23T06:47:57;14.88;;;3.60;;
27746;SDS011;15138;51.012;4.692;2024-03-23T06:50:25;11.18;;;3.28;;
27746;SDS011;15138;51.012;4.692;2024-03-23T06:52:52;22.35;;;4.80;;
27746;SDS011;15138;51.012;4.692;2024-03-23T06:55:19;16.27;;;4.03;;
27746;SDS011;15138;51.012;4.692;2024-03-23T06:57:45;15.02;;;3.63;;
27746;SDS011;15138;51.012;4.692;2024-03-23T07:00:15;14.75;;;3.08;;
27746;SDS011;15138;51.012;4.692;2024-03-23T07:02:41;13.27;;;3.60;;
27746;SDS011;15138;51.012;4.692;2024-03-23T07:05:09;13.48;;;3.25;;
27746;SDS011;15138;51.012;4.692;2024-03-23T07:07:36;11.15;;;2.92;;
27746;SDS011;15138;51.012;4.692;2024-03-23T07:10:04;15.68;;;2.88;;
27746;SDS011;15138;51.012;4.692;2024-03-23T07:12:31;12.20;;;2.83;;
27746;SDS011;15138;51.012;4.692;2024-03-23T07:14:58;18.83;;;2.88;;
27746;SDS011;15138;51.012;4.692;2024-03-23T07:17:26;10.02;;;2.95;;
27746;SDS011;15138;51.012;4.692;2024-03-23T07:19:53;14.63;;;3.50;;
27746;SDS011;15138;51.012;4.692;2024-03-23T07:22:20;16.58;;;3.35;;
27746;SDS011;15138;51.012;4.692;2024-03-23T07:24:49;19.67;;;3.90;;
27746;SDS011;15138;51.012;4.692;2024-03-23T07:27:17;15.48;;;3.38;;
27746;SDS011;15138;51.012;4.692;2024-03-23T07:29:45;14.38;;;2.85;;
27746;SDS011;15138;51.012;4.692;2024-03-23T07:32:11;19.10;;;3.22;;
27746;SDS011;15138;51.012;4.692;2024-03-23T07:34:40;17.08;;;3.33;;
27746;SDS011;15138;51.012;4.692;2024-03-23T07:37:08;13.15;;;3.50;;
27746;SDS011;15138;51.012;4.692;2024-03-23T07:39:36;16.00;;;3.30;;
27746;SDS011;15138;51.012;4.692;2024-03-23T07:42:03;18.63;;;3.67;;
27746;SDS011;15138;51.012;4.692;2024-03-23T07:44:30;15.32;;;2.90;;
27746;SDS011;15138;51.012;4.692;2024-03-23T07:46:58;11.85;;;2.88;;
27746;SDS011;15138;51.012;4.692;2024-03-23T07:49:25;14.52;;;3.08;;
27746;SDS011;15138;51.012;4.692;2024-03-23T07:51:53;11.52;;;2.42;;
27746;SDS011;15138;51.012;4.692;2024-03-23T07:54:21;13.43;;;2.38;;
27746;SDS011;15138;51.012;4.692;2024-03-23T07:56:47;9.52;;;2.45;;
27746;SDS011;15138;51.012;4.692;2024-03-23T07:59:15;8.90;;;2.05;;
27746;SDS011;15138;51.012;4.692;2024-03-23T08:01:41;13.10;;;2.08;;
27746;SDS011;15138;51.012;4.692;2024-03-23T08:04:09;11.65;;;2.00;;
27746;SDS011;15138;51.012;4.692;2024-03-23T08:06:35;11.02;;;2.10;;
27746;SDS011;15138;51.012;4.692;2024-03-23T08:09:04;15.20;;;2.13;;
27746;SDS011;15138;51.012;4.692;2024-03-23T08:11:31;10.07;;;2.00;;
27746;SDS011;15138;51.012;4.692;2024-03-23T08:13:59;10.90;;;2.30;;
27746;SDS011;15138;51.012;4.692;2024-03-23T08:16:27;10.13;;;2.55;;
27746;SDS011;15138;51.012;4.692;2024-03-23T08:18:54;11.50;;;1.48;;
27746;SDS011;15138;51.012;4.692;2024-03-23T08:21:21;12.25;;;2.38;;
27746;SDS011;15138;51.012;4.692;2024-03-23T08:23:50;13.70;;;2.38;;
27746;SDS011;15138;51.012;4.692;2024-03-23T08:26:18;11.38;;;3.08;;
27746;SDS011;15138;51.012;4.692;2024-03-23T08:28:45;5.55;;;1.25;;
27746;SDS011;15138;51.012;4.692;2024-03-23T08:31:13;15.48;;;2.72;;
27746;SDS011;15138;51.012;4.692;2024-03-23T08:33:41;6.15;;;1.48;;
27746;SDS011;15138;51.012;4.692;2024-03-23T08:36:08;12.25;;;2.75;;
27746;SDS011;15138;51.012;4.692;2024-03-23T08:38:37;9.80;;;2.10;;
27746;SDS011;15138;51.012;4.692;2024-03-23T08:41:04;13.02;;;1.83;;
27746;SDS011;15138;51.012;4.692;2024-03-23T08:43:35;9.32;;;1.85;;
27746;SDS011;15138;51.012;4.692;2024-03-23T08:46:05;5.57;;;1.58;;
27746;SDS011;15138;51.012;4.692;2024-03-23T08:48:32;14.93;;;2.80;;
27746;SDS011;15138;51.012;4.692;2024-03-23T08:51:00;11.85;;;2.65;;
27746;SDS011;15138;51.012;4.692;2024-03-23T08:53:27;6.90;;;1.65;;
27746;SDS011;15138;51.012;4.692;2024-03-23T08:55:54;6.93;;;1.92;;
27746;SDS011;15138;51.012;4.692;2024-03-23T08:58:22;15.73;;;3.22;;
27746;SDS011;15138;51.012;4.692;2024-03-23T09:00:51;11.68;;;2.08;;
27746;SDS011;15138;51.012;4.692;2024-03-23T09:03:21;6.72;;;1.67;;
27746;SDS011;15138;51.012;4.692;2024-03-23T09:05:47;9.68;;;2.40;;
27746;SDS011;15138;51.012;4.692;2024-03-23T09:08:14;11.88;;;2.45;;
27746;SDS011;15138;51.012;4.692;2024-03-23T09:10:41;5.20;;;1.58;;
27746;SDS011;15138;51.012;4.692;2024-03-23T09:13:09;11.13;;;1.98;;
27746;SDS011;15138;51.012;4.692;2024-03-23T09:15:36;13.23;;;2.20;;
27746;SDS011;15138;51.012;4.692;2024-03-23T09:18:05;8.68;;;1.75;;
27746;SDS011;15138;51.012;4.692;2024-03-23T09:20:32;7.78;;;1.67;;
27746;SDS011;15138;51.012;4.692;2024-03-23T09:23:00;12.40;;;2.72;;
27746;SDS011;15138;51.012;4.692;2024-03-23T09:25:26;13.43;;;2.63;;
27746;SDS011;15138;51.012;4.692;2024-03-23T09:27:53;11.52;;;2.35;;
27746;SDS011;15138;51.012;4.692;2024-03-23T09:30:20;9.93;;;2.45;;
27746;SDS011;15138;51.012;4.692;2024-03-23T09:32:47;8.18;;;2.20;;
27746;SDS011;15138;51.012;4.692;2024-03-23T09:35:15;9.00;;;2.10;;
27746;SDS011;15138;51.012;4.692;2024-03-23T09:37:43;10.60;;;2.17;;
27746;SDS011;15138;51.012;4.692;2024-03-23T09:40:11;11.68;;;2.20;;
27746;SDS011;15138;51.012;4.692;2024-03-23T09:42:38;10.98;;;2.35;;
27746;SDS011;15138;51.012;4.692;2024-03-23T09:45:05;2.72;;;0.95;;
27746;SDS011;15138;51.012;4.692;2024-03-23T09:47:34;6.85;;;1.58;;
27746;SDS011;15138;51.012;4.692;2024-03-23T09:50:01;10.10;;;2.17;;
27746;SDS011;15138;51.012;4.692;2024-03-23T09:52:31;4.90;;;1.25;;
27746;SDS011;15138;51.012;4.692;2024-03-23T09:54:57;9.73;;;1.42;;
27746;SDS011;15138;51.012;4.692;2024-03-23T09:57:24;11.73;;;2.10;;
27746;SDS011;15138;51.012;4.692;2024-03-23T09:59:51;5.85;;;1.27;;
27746;SDS011;15138;51.012;4.692;2024-03-23T10:02:19;4.05;;;1.17;;
27746;SDS011;15138;51.012;4.692;2024-03-23T10:04:47;4.85;;;1.13;;
27746;SDS011;15138;51.012;4.692;2024-03-23T10:07:14;5.03;;;1.30;;
27746;SDS011;15138;51.012;4.692;2024-03-23T10:09:46;4.10;;;1.23;;
27746;SDS011;15138;51.012;4.692;2024-03-23T10:12:13;4.57;;;1.50;;
27746;SDS011;15138;51.012;4.692;2024-03-23T10:14:41;9.85;;;1.30;;
27746;SDS011;15138;51.012;4.692;2024-03-23T10:17:12;5.70;;;0.98;;
27746;SDS011;15138;51.012;4.692;2024-03-23T10:19:40;5.07;;;1.85;;
27746;SDS011;15138;51.012;4.692;2024-03-23T10:22:08;4.25;;;1.20;;
27746;SDS011;15138;51.012;4.692;2024-03-23T10:24:39;5.70;;;1.42;;
27746;SDS011;15138;51.012;4.692;2024-03-23T10:27:07;4.18;;;1.00;;
27746;SDS011;15138;51.012;4.692;2024-03-23T10:29:34;6.82;;;1.40;;
27746;SDS011;15138;51.012;4.692;2024-03-23T10:32:07;7.90;;;1.40;;
27746;SDS011;15138;51.012;4.692;2024-03-23T10:34:35;7.50;;;1.52;;
27746;SDS011;15138;51.012;4.692;2024-03-23T10:37:02;5.53;;;1.40;;
27746;SDS011;15138;51.012;4.692;2024-03-23T10:39:30;3.85;;;1.00;;
27746;SDS011;15138;51.012;4.692;2024-03-23T10:42:00;4.75;;;1.40;;
27746;SDS011;15138;51.012;4.692;2024-03-23T10:44:32;8.68;;;1.80;;
27746;SDS011;15138;51.012;4.692;2024-03-23T10:46:59;8.45;;;1.55;;
27746;SDS011;15138;51.012;4.692;2024-03-23T10:49:27;5.80;;;1.38;;
27746;SDS011;15138;51.012;4.692;2024-03-23T10:51:59;5.15;;;1.30;;
27746;SDS011;15138;51.012;4.692;2024-03-23T10:54:26;7.03;;;1.55;;
27746;SDS011;15138;51.012;4.692;2024-03-23T10:57:08;8.18;;;1.45;;
27746;SDS011;15138;51.012;4.692;2024-03-23T10:59:39;4.25;;;1.35;;
27746;SDS011;15138;51.012;4.692;2024-03-23T11:02:07;6.63;;;1.33;;
27746;SDS011;15138;51.012;4.692;2024-03-23T11:04:44;4.18;;;1.20;;
27746;SDS011;15138;51.012;4.692;2024-03-23T11:07:29;5.93;;;1.58;;
27746;SDS011;15138;51.012;4.692;2024-03-23T11:09:57;8.57;;;1.58;;
27746;SDS011;15138;51.012;4.692;2024-03-23T11:12:25;5.72;;;1.42;;
27746;SDS011;15138;51.012;4.692;2024-03-23T11:14:54;2.75;;;1.30;;
27746;SDS011;15138;51.012;4.692;2024-03-23T11:17:22;4.32;;;1.30;;
27746;SDS011;15138;51.012;4.692;2024-03-23T11:19:52;5.40;;;1.63;;
27746;SDS011;15138;51.012;4.692;2024-03-23T11:25:17;3.70;;;1.08;;
27746;SDS011;15138;51.012;4.692;2024-03-23T11:27:46;5.75;;;1.35;;
27746;SDS011;15138;51.012;4.692;2024-03-23T11:30:14;6.68;;;1.42;;
27746;SDS011;15138;51.012;4.692;2024-03-23T11:32:43;8.38;;;1.80;;
27746;SDS011;15138;51.012;4.692;2024-03-23T11:35:10;4.18;;;1.70;;
27746;SDS011;15138;51.012;4.692;2024-03-23T11:37:37;4.20;;;1.90;;
27746;SDS011;15138;51.012;4.692;2024-03-23T11:40:17;4.88;;;1.38;;
27746;SDS011;15138;51.012;4.692;2024-03-23T11:42:44;6.95;;;1.77;;
27746;SDS011;15138;51.012;4.692;2024-03-23T11:45:11;8.68;;;2.03;;
27746;SDS011;15138;51.012;4.692;2024-03-23T11:47:41;7.88;;;2.67;;
27746;SDS011;15138;51.012;4.692;2024-03-23T11:50:08;4.35;;;1.95;;
27746;SDS011;15138;51.012;4.692;2024-03-23T11:52:36;6.43;;;1.95;;
27746;SDS011;15138;51.012;4.692;2024-03-23T11:55:05;5.70;;;1.63;;
27746;SDS011;15138;51.012;4.692;2024-03-23T11:57:33;4.10;;;1.10;;
27746;SDS011;15138;51.012;4.692;2024-03-23T11:59:59;7.38;;;1.85;;
27746;SDS011;15138;51.012;4.692;2024-03-23T12:02:27;8.70;;;2.25;;
27746;SDS011;15138;51.012;4.692;2024-03-23T12:04:54;4.80;;;1.80;;
27746;SDS011;15138;51.012;4.692;2024-03-23T12:07:21;7.57;;;2.03;;
27746;SDS011;15138;51.012;4.692;2024-03-23T12:10:02;5.80;;;1.75;;
27746;SDS011;15138;51.012;4.692;2024-03-23T12:12:29;7.45;;;1.30;;
27746;SDS011;15138;51.012;4.692;2024-03-23T12:15:02;6.03;;;1.98;;
27746;SDS011;15138;51.012;4.692;2024-03-23T12:17:31;5.20;;;1.40;;
27746;SDS011;15138;51.012;4.692;2024-03-23T12:19:59;7.45;;;1.60;;
27746;SDS011;15138;51.012;4.692;2024-03-23T12:22:27;8.43;;;1.33;;
27746;SDS011;15138;51.012;4.692;2024-03-23T12:24:54;4.63;;;1.13;;
27746;SDS011;15138;51.012;4.692;2024-03-23T12:27:22;4.13;;;1.10;;
27746;SDS011;15138;51.012;4.692;2024-03-23T12:29:49;4.65;;;1.10;;
27746;SDS011;15138;51.012;4.692;2024-03-23T12:32:15;7.53;;;1.70;;
27746;SDS011;15138;51.012;4.692;2024-03-23T12:34:43;5.68;;;1.45;;
27746;SDS011;15138;51.012;4.692;2024-03-23T12:37:11;8.88;;;1.17;;
27746;SDS011;15138;51.012;4.692;2024-03-23T12:39:39;4.45;;;1.25;;
27746;SDS011;15138;51.012;4.692;2024-03-23T12:42:05;3.72;;;1.30;;
27746;SDS011;15138;51.012;4.692;2024-03-23T12:44:32;4.95;;;1.10;;
27746;SDS011;15138;51.012;4.692;2024-03-23T12:46:58;4.32;;;1.38;;
27746;SDS011;15138;51.012;4.692;2024-03-23T12:49:26;3.78;;;1.00;;
27746;SDS011;15138;51.012;4.692;2024-03-23T12:51:55;9.30;;;1.48;;
27746;SDS011;15138;51.012;4.692;2024-03-23T12:54:24;5.70;;;1.35;;
27746;SDS011;15138;51.012;4.692;2024-03-23T12:56:50;4.53;;;1.00;;
27746;SDS011;15138;51.012;4.692;2024-03-23T12:59:17;5.10;;;1.20;;
27746;SDS011;15138;51.012;4.692;2024-03-23T13:01:44;1.23;;;0.70;;
27746;SDS011;15138;51.012;4.692;2024-03-23T13:04:11;3.40;;;1.30;;
27746;SDS011;15138;51.012;4.692;2024-03-23T13:06:37;5.38;;;1.77;;
27746;SDS011;15138;51.012;4.692;2024-03-23T13:09:05;5.85;;;1.60;;
27746;SDS011;15138;51.012;4.692;2024-03-23T13:11:32;6.18;;;1.10;;
27746;SDS011;15138;51.012;4.692;2024-03-23T13:14:00;7.40;;;1.77;;
27746;SDS011;15138;51.012;4.692;2024-03-23T13:16:26;3.47;;;1.15;;
27746;SDS011;15138;51.012;4.692;2024-03-23T13:18:56;5.47;;;1.70;;
27746;SDS011;15138;51.012;4.692;2024-03-23T13:21:22;7.10;;;1.90;;
27746;SDS011;15138;51.012;4.692;2024-03-23T13:23:49;3.78;;;1.00;;
27746;SDS011;15138;51.012;4.692;2024-03-23T13:26:16;6.60;;;1.10;;
27746;SDS011;15138;51.012;4.692;2024-03-23T13:28:44;4.15;;;1.27;;
27746;SDS011;15138;51.012;4.692;2024-03-23T13:31:11;4.55;;;1.45;;
27746;SDS011;15138;51.012;4.692;2024-03-23T13:33:38;6.47;;;1.08;;
27746;SDS011;15138;51.012;4.692;2024-03-23T13:36:05;3.63;;;0.93;;
27746;SDS011;15138;51.012;4.692;2024-03-23T13:38:33;3.70;;;1.30;;
27746;SDS011;15138;51.012;4.692;2024-03-23T13:40:59;5.93;;;1.48;;
27746;SDS011;15138;51.012;4.692;2024-03-23T13:43:29;4.30;;;1.30;;
27746;SDS011;15138;51.012;4.692;2024-03-23T13:45:57;4.80;;;0.73;;
27746;SDS011;15138;51.012;4.692;2024-03-23T13:48:26;3.80;;;1.00;;
27746;SDS011;15138;51.012;4.692;2024-03-23T13:50:57;3.60;;;0.85;;
27746;SDS011;15138;51.012;4.692;2024-03-23T13:53:25;8.82;;;1.33;;
27746;SDS011;15138;51.012;4.692;2024-03-23T13:55:51;4.72;;;1.25;;
27746;SDS011;15138;51.012;4.692;2024-03-23T13:58:18;4.40;;;1.17;;
27746;SDS011;15138;51.012;4.692;2024-03-23T14:00:45;7.68;;;1.30;;
27746;SDS011;15138;51.012;4.692;2024-03-23T14:03:13;4.70;;;1.10;;
27746;SDS011;15138;51.012;4.692;2024-03-23T14:05:40;3.30;;;1.00;;
27746;SDS011;15138;51.012;4.692;2024-03-23T14:08:07;7.13;;;1.58;;
27746;SDS011;15138;51.012;4.692;2024-03-23T14:10:35;4.20;;;0.90;;
27746;SDS011;15138;51.012;4.692;2024-03-23T14:13:02;8.07;;;1.75;;
27746;SDS011;15138;51.012;4.692;2024-03-23T14:15:29;4.70;;;1.17;;
27746;SDS011;15138;51.012;4.692;2024-03-23T14:17:56;3.72;;;1.20;;
27746;SDS011;15138;51.012;4.692;2024-03-23T14:20:24;3.40;;;1.40;;
27746;SDS011;15138;51.012;4.692;2024-03-23T14:22:52;6.82;;;1.38;;
27746;SDS011;15138;51.012;4.692;2024-03-23T14:25:18;6.72;;;1.25;;
27746;SDS011;15138;51.012;4.692;2024-03-23T14:27:47;2.60;;;0.95;;
27746;SDS011;15138;51.012;4.692;2024-03-23T14:30:13;3.47;;;1.50;;
27746;SDS011;15138;51.012;4.692;2024-03-23T14:32:40;6.75;;;1.20;;
27746;SDS011;15138;51.012;4.692;2024-03-23T14:35:07;6.40;;;1.23;;
27746;SDS011;15138;51.012;4.692;2024-03-23T14:37:37;7.65;;;1.55;;
27746;SDS011;15138;51.012;4.692;2024-03-23T14:40:04;4.78;;;1.60;;
27746;SDS011;15138;51.012;4.692;2024-03-23T14:42:32;5.07;;;1.20;;
27746;SDS011;15138;51.012;4.692;2024-03-23T14:44:58;4.63;;;1.40;;
27746;SDS011;15138;51.012;4.692;2024-03-23T14:47:25;6.30;;;1.50;;
27746;SDS011;15138;51.012;4.692;2024-03-23T14:49:52;5.45;;;1.40;;
27746;SDS011;15138;51.012;4.692;2024-03-23T14:52:19;5.93;;;1.30;;
27746;SDS011;15138;51.012;4.692;2024-03-23T14:54:47;8.15;;;1.35;;
27746;SDS011;15138;51.012;4.692;2024-03-23T14:57:14;5.30;;;1.73;;
27746;SDS011;15138;51.012;4.692;2024-03-23T14:59:40;3.22;;;1.15;;
27746;SDS011;15138;51.012;4.692;2024-03-23T15:02:07;5.80;;;1.60;;
27746;SDS011;15138;51.012;4.692;2024-03-23T15:04:33;4.20;;;1.52;;
27746;SDS011;15138;51.012;4.692;2024-03-23T15:07:01;5.88;;;1.50;;
27746;SDS011;15138;51.012;4.692;2024-03-23T15:09:28;3.55;;;1.30;;
27746;SDS011;15138;51.012;4.692;2024-03-23T15:11:56;4.90;;;1.52;;
27746;SDS011;15138;51.012;4.692;2024-03-23T15:14:23;6.00;;;1.67;;
27746;SDS011;15138;51.012;4.692;2024-03-23T15:16:50;6.90;;;1.33;;
27746;SDS011;15138;51.012;4.692;2024-03-23T15:19:18;6.95;;;1.85;;
27746;SDS011;15138;51.012;4.692;2024-03-23T15:21:45;5.88;;;1.60;;
27746;SDS011;15138;51.012;4.692;2024-03-23T15:24:11;6.75;;;1.63;;
27746;SDS011;15138;51.012;4.692;2024-03-23T15:26:38;4.75;;;1.55;;
27746;SDS011;15138;51.012;4.692;2024-03-23T15:29:06;7.90;;;2.00;;
27746;SDS011;15138;51.012;4.692;2024-03-23T15:31:43;6.60;;;1.90;;
27746;SDS011;15138;51.012;4.692;2024-03-23T15:34:10;3.53;;;1.70;;
27746;SDS011;15138;51.012;4.692;2024-03-23T15:36:38;7.05;;;1.45;;
27746;SDS011;15138;51.012;4.692;2024-03-23T15:39:04;4.22;;;1.10;;